createdAt,value
2023-04-17T00:00:37.374Z,99321.78
2023-04-17T00:03:06.100Z,99324.28
2023-04-17T00:05:34.642Z,99325.66
2023-04-17T00:08:03.403Z,99328.09
2023-04-17T00:10:33.230Z,99325.06
2023-04-17T00:13:01.606Z,99331.97
2023-04-17T00:15:30.347Z,99331.97
2023-04-17T00:17:58.867Z,99325.63
2023-04-17T00:20:27.215Z,99316.81
2023-04-17T00:22:55.558Z,99329.19
2023-04-17T00:25:24.316Z,99319.31
2023-04-17T00:27:54.194Z,99316.81
2023-04-17T00:30:23.193Z,99322.59
2023-04-17T00:32:51.538Z,99325.06
2023-04-17T00:35:20.103Z,99321.22
2023-04-17T00:37:49.770Z,99320.13
2023-04-17T00:40:18.508Z,99312.41
2023-04-17T00:42:52.952Z,99312.13
2023-04-17T00:45:23.468Z,99320.94
2023-04-17T00:47:53.022Z,99304.97
2023-04-17T00:50:21.780Z,99303.03
2023-04-17T00:52:51.005Z,99301.94
2023-04-17T00:55:20.076Z,99303.88
2023-04-17T00:57:49.712Z,99300.00
2023-04-17T01:00:18.881Z,99301.13
2023-04-17T01:02:48.781Z,99309.38
2023-04-17T01:05:17.629Z,99302.75
2023-04-17T01:07:47.548Z,99317.34
2023-04-17T01:10:16.041Z,99311.00
2023-04-17T01:12:46.899Z,99308.84
2023-04-17T01:15:15.720Z,99306.63
2023-04-17T01:17:44.137Z,99302.75
2023-04-17T01:20:14.788Z,99309.09
2023-04-17T01:22:43.115Z,99297.53
2023-04-17T01:25:13.034Z,99308.78
2023-04-17T01:27:42.429Z,99305.78
2023-04-17T01:30:12.392Z,99296.69
2023-04-17T01:32:41.503Z,99307.72
2023-04-17T01:35:11.347Z,99306.03
2023-04-17T01:37:39.738Z,99301.66
2023-04-17T01:40:10.154Z,99297.22
2023-04-17T01:42:39.960Z,99306.06
2023-04-17T01:45:09.973Z,99307.44
2023-04-17T01:47:38.425Z,99318.72
2023-04-17T01:50:09.944Z,99319.00
2023-04-17T01:52:39.917Z,99312.97
2023-04-17T01:55:09.151Z,99311.88
2023-04-17T01:57:37.540Z,99319.31
2023-04-17T02:00:11.235Z,99312.97
2023-04-17T02:02:39.750Z,99311.03
2023-04-17T02:05:09.241Z,99320.94
2023-04-17T02:07:38.026Z,99316.25
2023-04-17T02:10:07.801Z,99330.03
2023-04-17T02:12:36.181Z,99327.81
2023-04-17T02:15:06.566Z,99326.44
2023-04-17T02:17:34.958Z,99331.97
2023-04-17T02:20:07.328Z,99328.91
2023-04-17T02:22:35.719Z,99324.22
2023-04-17T02:25:04.189Z,99317.34
2023-04-17T02:27:32.564Z,99311.53
2023-04-17T02:30:02.388Z,99318.72
2023-04-17T02:32:32.185Z,99321.19
2023-04-17T02:35:00.627Z,99312.09
2023-04-17T02:37:29.035Z,99313.75
2023-04-17T02:39:58.063Z,99310.44
2023-04-17T02:42:26.441Z,99306.03
2023-04-17T02:44:54.975Z,99311.53
2023-04-17T02:47:23.572Z,99307.69
2023-04-17T02:49:55.037Z,99305.19
2023-04-17T02:52:23.499Z,99307.13
2023-04-17T02:54:52.062Z,99294.47
2023-04-17T02:57:20.527Z,99299.44
2023-04-17T02:59:49.139Z,99292.25
2023-04-17T03:02:21.979Z,99296.94
2023-04-17T03:04:52.861Z,99307.16
2023-04-17T03:07:23.794Z,99311.84
2023-04-17T03:09:54.072Z,99309.63
2023-04-17T03:12:22.439Z,99313.22
2023-04-17T03:14:51.186Z,99302.75
2023-04-17T03:17:21.003Z,99322.03
2023-04-17T03:19:49.436Z,99310.47
2023-04-17T03:22:19.194Z,99324.25
2023-04-17T03:24:47.592Z,99321.78
2023-04-17T03:27:15.949Z,99317.91
2023-04-17T03:29:44.384Z,99323.16
2023-04-17T03:32:12.856Z,99327.53
2023-04-17T03:34:41.327Z,99317.34
2023-04-17T03:37:09.690Z,99320.09
2023-04-17T03:39:39.408Z,99313.75
2023-04-17T03:42:08.098Z,99318.19
2023-04-17T03:44:36.726Z,99319.28
2023-04-17T03:47:05.218Z,99320.41
2023-04-17T03:49:33.628Z,99320.41
2023-04-17T03:52:03.780Z,99328.38
2023-04-17T03:54:35.622Z,99322.03
2023-04-17T03:57:06.149Z,99330.28
2023-04-17T03:59:34.562Z,99320.41
2023-04-17T04:02:03.272Z,99323.16
2023-04-17T04:04:31.824Z,99329.19
2023-04-17T04:07:01.590Z,99324.53
2023-04-17T04:09:29.932Z,99317.06
2023-04-17T04:11:58.507Z,99314.59
2023-04-17T04:14:28.253Z,99327.53
2023-04-17T04:16:56.555Z,99321.19
2023-04-17T04:19:24.954Z,99328.66
2023-04-17T04:21:54.389Z,99330.03
2023-04-17T04:24:23.753Z,99322.31
2023-04-17T04:26:52.321Z,99334.16
2023-04-17T04:29:25.721Z,99325.34
2023-04-17T04:31:55.672Z,99325.63
2023-04-17T04:34:25.866Z,99327.00
2023-04-17T04:36:54.323Z,99332.50
2023-04-17T04:39:22.671Z,99329.50
2023-04-17T04:41:52.024Z,99336.63
2023-04-17T04:44:21.157Z,99347.94
2023-04-17T04:46:49.531Z,99344.34
2023-04-17T04:49:19.555Z,99354.25
2023-04-17T04:51:48.010Z,99352.31
2023-04-17T04:54:16.416Z,99344.31
2023-04-17T04:56:46.055Z,99350.94
2023-04-17T04:59:14.393Z,99350.94
2023-04-17T05:01:44.745Z,99347.09
2023-04-17T05:04:13.325Z,99349.00
2023-04-17T05:06:43.082Z,99341.53
2023-04-17T05:09:11.738Z,99350.03
2023-04-17T05:11:40.518Z,99350.84
2023-04-17T05:14:09.043Z,99341.44
2023-04-17T05:16:37.480Z,99348.06
2023-04-17T05:19:06.029Z,99353.56
2023-04-17T05:21:34.491Z,99354.91
2023-04-17T05:24:04.469Z,99356.56
2023-04-17T05:26:32.797Z,99365.59
2023-04-17T05:29:01.552Z,99364.50
2023-04-17T05:31:30.011Z,99373.84
2023-04-17T05:33:58.408Z,99363.59
2023-04-17T05:36:27.130Z,99363.88
2023-04-17T05:38:56.949Z,99372.13
2023-04-17T05:41:27.981Z,99361.06
2023-04-17T05:43:56.370Z,99365.72
2023-04-17T05:46:24.751Z,99360.44
2023-04-17T05:48:53.224Z,99373.13
2023-04-17T05:51:21.819Z,99368.94
2023-04-17T05:53:50.159Z,99375.28
2023-04-17T05:56:18.519Z,99371.13
2023-04-17T05:58:48.269Z,99373.28
2023-04-17T06:01:17.777Z,99373.56
2023-04-17T06:03:46.649Z,99366.63
2023-04-17T06:06:15.199Z,99370.47
2023-04-17T06:08:43.550Z,99381.47
2023-04-17T06:11:11.983Z,99382.25
2023-04-17T06:13:40.461Z,99367.31
2023-04-17T06:16:10.650Z,99380.22
2023-04-17T06:18:39.011Z,99378.41
2023-04-17T06:21:08.819Z,99370.00
2023-04-17T06:23:37.244Z,99373.94
2023-04-17T06:26:05.769Z,99373.00
2023-04-17T06:28:34.636Z,99385.09
2023-04-17T06:31:03.404Z,99376.94
2023-04-17T06:33:33.261Z,99371.06
2023-04-17T06:36:01.614Z,99374.91
2023-04-17T06:38:30.043Z,99371.84
2023-04-17T06:40:58.537Z,99374.06
2023-04-17T06:43:28.419Z,99388.50
2023-04-17T06:45:56.901Z,99381.38
2023-04-17T06:48:25.493Z,99387.75
2023-04-17T06:50:55.271Z,99383.09
2023-04-17T06:53:23.643Z,99384.50
2023-04-17T06:55:52.214Z,99380.91
2023-04-17T06:58:20.534Z,99387.28
2023-04-17T07:00:49.119Z,99386.66
2023-04-17T07:03:17.639Z,99389.91
2023-04-17T07:05:46.621Z,99390.91
2023-04-17T07:08:18.498Z,99397.22
2023-04-17T07:10:46.809Z,99393.88
2023-04-17T07:13:15.129Z,99394.91
2023-04-17T07:15:43.690Z,99394.03
2023-04-17T07:18:12.176Z,99397.53
2023-04-17T07:20:40.481Z,99395.53
2023-04-17T07:23:08.860Z,99397.94
2023-04-17T07:25:38.698Z,99396.22
2023-04-17T07:28:07.750Z,99395.56
2023-04-17T07:30:36.196Z,99410.19
2023-04-17T07:33:04.738Z,99395.69
2023-04-17T07:35:33.186Z,99398.31
2023-04-17T07:38:03.803Z,99387.38
2023-04-17T07:40:33.498Z,99390.38
2023-04-17T07:43:03.317Z,99397.50
2023-04-17T07:45:33.514Z,99402.97
2023-04-17T07:48:01.901Z,99405.13
2023-04-17T07:50:30.561Z,99393.44
2023-04-17T07:52:59.552Z,99394.91
2023-04-17T07:55:27.885Z,99402.25
2023-04-17T07:57:56.633Z,99405.47
2023-04-17T08:00:26.396Z,99405.38
2023-04-17T08:02:54.984Z,99401.06
2023-04-17T08:05:24.227Z,99406.44
2023-04-17T08:07:52.784Z,99409.38
2023-04-17T08:10:21.363Z,99417.84
2023-04-17T08:12:49.742Z,99401.28
2023-04-17T08:15:18.317Z,99403.06
2023-04-17T08:17:48.258Z,99407.38
2023-04-17T08:20:18.271Z,99407.78
2023-04-17T08:22:47.745Z,99412.09
2023-04-17T08:25:16.364Z,99403.69
2023-04-17T08:27:45.191Z,99397.72
2023-04-17T08:30:18.823Z,99392.56
2023-04-17T08:32:50.840Z,99399.97
2023-04-17T08:35:20.888Z,99394.31
2023-04-17T08:37:49.403Z,99394.81
2023-04-17T08:40:18.875Z,99391.75
2023-04-17T08:42:48.304Z,99389.66
2023-04-17T08:45:17.628Z,99396.16
2023-04-17T08:47:46.120Z,99385.16
2023-04-17T08:50:18.044Z,99383.19
2023-04-17T08:52:49.580Z,99389.13
2023-04-17T08:55:20.712Z,99389.53
2023-04-17T08:58:00.982Z,99369.63
2023-04-17T09:00:31.230Z,99376.75
2023-04-17T09:03:02.738Z,99383.94
2023-04-17T09:05:34.233Z,99371.69
2023-04-17T09:08:12.351Z,99376.63
2023-04-17T09:10:43.007Z,99380.09
2023-04-17T09:13:14.599Z,99378.31
2023-04-17T09:15:44.612Z,99382.63
2023-04-17T09:18:26.794Z,99376.97
2023-04-17T09:20:57.709Z,99378.34
2023-04-17T09:23:27.163Z,99373.56
2023-04-17T09:26:09.481Z,99374.13
2023-04-17T09:28:40.045Z,99376.63
2023-04-17T09:31:26.270Z,99368.91
2023-04-17T09:33:59.589Z,99367.47
2023-04-17T09:36:31.614Z,99358.28
2023-04-17T09:39:01.116Z,99365.50
2023-04-17T09:41:31.811Z,99359.59
2023-04-17T09:44:05.357Z,99358.47
2023-04-17T09:46:39.331Z,99362.38
2023-04-17T09:49:15.196Z,99359.28
2023-04-17T09:51:45.007Z,99353.41
2023-04-17T09:54:15.383Z,99348.84
2023-04-17T09:56:44.658Z,99344.59
2023-04-17T09:59:13.495Z,99354.78
2023-04-17T10:01:42.365Z,99349.91
2023-04-17T10:04:11.934Z,99347.13
2023-04-17T10:06:41.688Z,99343.25
2023-04-17T10:09:11.560Z,99345.47
2023-04-17T10:11:43.493Z,99341.91
2023-04-17T10:14:16.796Z,99336.00
2023-04-17T10:16:47.219Z,99339.81
2023-04-17T10:19:35.681Z,99331.44
2023-04-17T10:22:41.115Z,99333.25
2023-04-17T10:25:29.887Z,99330.97
2023-04-17T10:28:02.075Z,99323.94
2023-04-17T10:30:54.483Z,99323.59
2023-04-17T10:33:27.480Z,99322.59
2023-04-17T10:35:56.157Z,99313.59
2023-04-17T10:38:36.743Z,99303.41
2023-04-17T10:41:11.351Z,99296.47
2023-04-17T10:43:45.971Z,99303.34
2023-04-17T10:46:15.611Z,99295.69
2023-04-17T10:48:49.835Z,99286.19
2023-04-17T10:51:44.029Z,99284.66
2023-04-17T10:54:15.686Z,99276.03
2023-04-17T10:56:48.376Z,99278.50
2023-04-17T10:59:18.918Z,99273.63
2023-04-17T11:02:04.622Z,99265.50
2023-04-17T11:04:34.665Z,99258.66
2023-04-17T11:07:03.297Z,99264.94
2023-04-17T11:09:31.718Z,99259.56
2023-04-17T11:12:02.934Z,99252.38
2023-04-17T11:14:32.383Z,99252.09
2023-04-17T11:17:02.210Z,99261.38
2023-04-17T11:19:30.904Z,99256.72
2023-04-17T11:22:01.480Z,99245.81
2023-04-17T11:24:32.308Z,99253.34
2023-04-17T11:27:03.413Z,99247.91
2023-04-17T11:29:31.973Z,99239.16
2023-04-17T11:32:01.300Z,99251.31
2023-04-17T11:34:30.342Z,99249.63
2023-04-17T11:37:00.862Z,99241.03
2023-04-17T11:39:32.571Z,99243.88
2023-04-17T11:42:03.883Z,99239.75
2023-04-17T11:44:32.334Z,99242.66
2023-04-17T11:47:00.861Z,99237.38
2023-04-17T11:49:30.915Z,99229.34
2023-04-17T11:52:02.950Z,99231.47
2023-04-17T11:54:32.980Z,99228.19
2023-04-17T11:57:05.139Z,99226.72
2023-04-17T11:59:34.999Z,99237.78
2023-04-17T12:02:04.258Z,99222.50
2023-04-17T12:04:34.897Z,99231.94
2023-04-17T12:07:05.023Z,99235.16
2023-04-17T12:09:34.053Z,99239.34
2023-04-17T12:12:07.170Z,99235.03
2023-04-17T12:14:35.891Z,99227.59
2023-04-17T12:17:04.275Z,99239.53
2023-04-17T12:19:33.788Z,99238.41
2023-04-17T12:22:02.184Z,99232.94
2023-04-17T12:24:30.657Z,99233.16
2023-04-17T12:27:01.877Z,99219.63
2023-04-17T12:29:43.178Z,99221.13
2023-04-17T12:32:12.983Z,99212.34
2023-04-17T12:34:41.740Z,99208.31
2023-04-17T12:37:10.197Z,99211.22
2023-04-17T12:39:38.543Z,99195.50
2023-04-17T12:42:06.997Z,99206.84
2023-04-17T12:44:36.735Z,99197.97
2023-04-17T12:47:05.215Z,99206.91
2023-04-17T12:49:33.637Z,99206.09
2023-04-17T12:52:03.693Z,99206.94
2023-04-17T12:54:33.061Z,99206.13
2023-04-17T12:57:02.820Z,99210.53
2023-04-17T12:59:31.256Z,99208.50
2023-04-17T13:02:01.060Z,99209.38
2023-04-17T13:04:29.604Z,99207.34
2023-04-17T13:06:58.124Z,99208.56
2023-04-17T13:09:26.502Z,99206.88
2023-04-17T13:11:54.863Z,99212.19
2023-04-17T13:14:23.325Z,99206.06
2023-04-17T13:16:51.813Z,99207.31
2023-04-17T13:19:21.630Z,99215.09
2023-04-17T13:21:52.058Z,99216.84
2023-04-17T13:24:20.498Z,99221.88
2023-04-17T13:26:48.893Z,99219.69
2023-04-17T13:29:19.460Z,99209.69
2023-04-17T13:31:48.602Z,99210.88
2023-04-17T13:34:17.208Z,99216.91
2023-04-17T13:36:47.107Z,99227.59
2023-04-17T13:39:15.730Z,99216.69
2023-04-17T13:41:44.175Z,99229.94
2023-04-17T13:44:13.675Z,99220.72
2023-04-17T13:46:42.370Z,99224.31
2023-04-17T13:49:10.929Z,99229.03
2023-04-17T13:51:39.528Z,99218.31
2023-04-17T13:54:09.982Z,99218.31
2023-04-17T13:56:38.774Z,99212.06
2023-04-17T13:59:07.385Z,99211.13
2023-04-17T14:01:36.052Z,99197.13
2023-04-17T14:04:04.798Z,99182.19
2023-04-17T14:06:34.785Z,99197.44
2023-04-17T14:09:03.264Z,99207.56
2023-04-17T14:11:33.077Z,99178.88
2023-04-17T14:14:01.667Z,99195.91
2023-04-17T14:16:30.342Z,99180.03
2023-04-17T14:19:06.388Z,99178.63
2023-04-17T14:21:41.747Z,99184.34
2023-04-17T14:24:10.753Z,99182.91
2023-04-17T14:26:41.311Z,99194.50
2023-04-17T14:29:10.849Z,99198.09
2023-04-17T14:31:39.573Z,99189.72
2023-04-17T14:34:08.547Z,99183.94
2023-04-17T14:36:37.069Z,99185.88
2023-04-17T14:39:05.497Z,99189.16
2023-04-17T14:41:34.897Z,99183.75
2023-04-17T14:44:04.968Z,99181.44
2023-04-17T14:46:33.506Z,99178.72
2023-04-17T14:49:01.979Z,99177.22
2023-04-17T14:51:30.863Z,99181.28
2023-04-17T14:53:59.453Z,99177.59
2023-04-17T14:56:27.936Z,99175.69
2023-04-17T14:58:56.337Z,99181.63
2023-04-17T15:01:26.173Z,99189.56
2023-04-17T15:03:54.948Z,99188.63
2023-04-17T15:06:23.550Z,99188.69
2023-04-17T15:08:52.009Z,99191.72
2023-04-17T15:11:21.053Z,99170.75
2023-04-17T15:13:49.552Z,99193.03
2023-04-17T15:16:18.088Z,99194.22
2023-04-17T15:18:48.084Z,99203.94
2023-04-17T15:21:17.483Z,99210.56
2023-04-17T15:23:46.076Z,99204.19
2023-04-17T15:26:14.992Z,99203.59
2023-04-17T15:28:43.438Z,99203.94
2023-04-17T15:31:11.836Z,99201.97
2023-04-17T15:33:40.621Z,99212.78
2023-04-17T15:36:10.482Z,99206.97
2023-04-17T15:38:38.904Z,99207.16
2023-04-17T15:41:08.756Z,99218.16
2023-04-17T15:43:38.877Z,99219.91
2023-04-17T15:46:07.820Z,99224.03
2023-04-17T15:48:36.414Z,99230.50
2023-04-17T15:51:05.074Z,99228.88
2023-04-17T15:53:34.971Z,99236.13
2023-04-17T15:56:03.416Z,99239.28
2023-04-17T15:58:31.818Z,99243.06
2023-04-17T16:01:00.255Z,99239.97
2023-04-17T16:03:28.814Z,99247.38
2023-04-17T16:05:57.284Z,99251.00
2023-04-17T16:08:25.760Z,99242.50
2023-04-17T16:10:55.536Z,99240.88
2023-04-17T16:13:23.979Z,99255.66
2023-04-17T16:15:52.396Z,99251.91
2023-04-17T16:18:20.895Z,99259.28
2023-04-17T16:20:49.349Z,99258.47
2023-04-17T16:23:18.061Z,99251.25
2023-04-17T16:25:46.557Z,99253.75
2023-04-17T16:28:16.388Z,99249.16
2023-04-17T16:30:44.872Z,99251.41
2023-04-17T16:33:13.351Z,99249.78
2023-04-17T16:35:41.950Z,99243.88
2023-04-17T16:38:10.470Z,99252.72
2023-04-17T16:40:39.012Z,99259.47
2023-04-17T16:43:07.707Z,99256.19
2023-04-17T16:45:38.268Z,99266.69
2023-04-17T16:48:09.224Z,99264.72
2023-04-17T16:50:37.932Z,99280.28
2023-04-17T16:53:06.386Z,99276.16
2023-04-17T16:55:36.998Z,99268.41
2023-04-17T16:58:05.532Z,99280.34
2023-04-17T17:00:33.950Z,99283.09
2023-04-17T17:03:04.047Z,99284.91
2023-04-17T17:05:32.670Z,99287.81
2023-04-17T17:08:01.539Z,99283.38
2023-04-17T17:10:30.029Z,99292.91
2023-04-17T17:12:58.459Z,99295.97
2023-04-17T17:15:26.833Z,99288.28
2023-04-17T17:17:55.355Z,99293.03
2023-04-17T17:20:25.632Z,99294.00
2023-04-17T17:22:54.124Z,99299.38
2023-04-17T17:25:23.103Z,99302.31
2023-04-17T17:27:51.763Z,99302.75
2023-04-17T17:30:20.461Z,99308.78
2023-04-17T17:32:48.962Z,99304.31
2023-04-17T17:35:18.092Z,99310.97
2023-04-17T17:37:48.014Z,99314.00
2023-04-17T17:40:17.722Z,99313.94
2023-04-17T17:42:46.771Z,99315.53
2023-04-17T17:45:15.872Z,99314.81
2023-04-17T17:47:44.411Z,99317.41
2023-04-17T17:50:13.649Z,99320.81
2023-04-17T17:52:42.765Z,99318.66
2023-04-17T17:55:16.978Z,99309.31
2023-04-17T17:57:49.310Z,99312.41
2023-04-17T18:00:18.906Z,99308.63
2023-04-17T18:02:48.417Z,99315.94
2023-04-17T18:05:17.828Z,99323.28
2023-04-17T18:07:46.266Z,99328.16
2023-04-17T18:10:18.570Z,99327.94
2023-04-17T18:12:47.521Z,99330.22
2023-04-17T18:15:17.623Z,99331.31
2023-04-17T18:17:46.756Z,99344.41
2023-04-17T18:20:16.883Z,99347.50
2023-04-17T18:22:46.101Z,99345.53
2023-04-17T18:25:17.060Z,99345.38
2023-04-17T18:27:50.516Z,99354.19
2023-04-17T18:30:19.689Z,99353.38
2023-04-17T18:32:48.919Z,99360.88
2023-04-17T18:35:19.678Z,99362.66
2023-04-17T18:37:48.341Z,99360.81
2023-04-17T18:40:21.881Z,99365.59
2023-04-17T18:42:51.164Z,99365.19
2023-04-17T18:45:22.582Z,99372.84
2023-04-17T18:47:51.600Z,99374.38
2023-04-17T18:50:20.785Z,99379.84
2023-04-17T18:52:51.278Z,99389.69
2023-04-17T18:55:21.732Z,99387.34
2023-04-17T18:57:50.998Z,99395.25
2023-04-17T19:00:21.653Z,99386.50
2023-04-17T19:02:50.425Z,99392.47
2023-04-17T19:05:21.993Z,99391.53
2023-04-17T19:07:51.597Z,99389.44
2023-04-17T19:10:22.529Z,99386.50
2023-04-17T19:12:52.140Z,99384.44
2023-04-17T19:15:22.151Z,99381.25
2023-04-17T19:17:52.890Z,99388.81
2023-04-17T19:20:23.757Z,99388.38
2023-04-17T19:22:53.279Z,99386.00
2023-04-17T19:25:24.353Z,99391.94
2023-04-17T19:27:54.037Z,99401.44
2023-04-17T19:30:23.339Z,99386.03
2023-04-17T19:32:52.494Z,99392.16
2023-04-17T19:35:21.806Z,99392.22
2023-04-17T19:37:55.388Z,99398.69
2023-04-17T19:40:26.670Z,99391.25
2023-04-17T19:43:01.460Z,99388.59
2023-04-17T19:45:34.057Z,99394.72
2023-04-17T19:48:04.784Z,99385.06
2023-04-17T19:50:34.237Z,99378.16
2023-04-17T19:53:05.368Z,99376.00
2023-04-17T19:55:36.024Z,99369.09
2023-04-17T19:58:05.357Z,99373.28
2023-04-17T20:00:35.073Z,99379.94
2023-04-17T20:03:03.753Z,99377.47
2023-04-17T20:05:32.590Z,99370.59
2023-04-17T20:08:02.943Z,99376.13
2023-04-17T20:10:31.792Z,99363.38
2023-04-17T20:13:02.510Z,99375.88
2023-04-17T20:15:32.538Z,99369.81
2023-04-17T20:18:08.851Z,99363.44
2023-04-17T20:20:39.722Z,99367.88
2023-04-17T20:23:08.238Z,99367.88
2023-04-17T20:25:37.074Z,99359.56
2023-04-17T20:28:07.613Z,99365.41
2023-04-17T20:30:36.010Z,99363.75
2023-04-17T20:33:05.614Z,99364.88
2023-04-17T20:35:35.206Z,99367.94
2023-04-17T20:38:03.845Z,99365.19
2023-04-17T20:40:33.038Z,99364.66
2023-04-17T20:43:01.736Z,99372.97
2023-04-17T20:45:32.126Z,99363.81
2023-04-17T20:48:02.445Z,99367.72
2023-04-17T20:50:31.564Z,99373.28
2023-04-17T20:52:59.988Z,99372.44
2023-04-17T20:55:28.787Z,99373.28
2023-04-17T20:57:57.235Z,99371.31
2023-04-17T21:00:26.190Z,99379.59
2023-04-17T21:02:56.018Z,99380.16
2023-04-17T21:05:24.544Z,99378.44
2023-04-17T21:07:53.062Z,99385.84
2023-04-17T21:10:21.821Z,99380.00
2023-04-17T21:12:50.363Z,99376.06
2023-04-17T21:15:18.964Z,99371.06
2023-04-17T21:17:48.018Z,99373.22
2023-04-17T21:20:17.811Z,99371.00
2023-04-17T21:22:46.217Z,99378.69
2023-04-17T21:25:14.575Z,99370.38
2023-04-17T21:27:43.862Z,99366.50
2023-04-17T21:30:12.846Z,99378.41
2023-04-17T21:32:42.308Z,99377.59
2023-04-17T21:35:11.424Z,99375.09
2023-04-17T21:37:41.151Z,99358.78
2023-04-17T21:40:11.012Z,99368.22
2023-04-17T21:42:39.552Z,99367.91
2023-04-17T21:45:09.563Z,99375.41
2023-04-17T21:47:38.131Z,99367.91
2023-04-17T21:50:08.522Z,99369.56
2023-04-17T21:52:36.908Z,99367.34
2023-04-17T21:55:08.451Z,99372.25
2023-04-17T21:57:36.982Z,99370.81
2023-04-17T22:00:09.475Z,99366.94
2023-04-17T22:02:37.839Z,99361.09
2023-04-17T22:05:07.416Z,99355.25
2023-04-17T22:07:44.027Z,99357.72
2023-04-17T22:10:24.530Z,99353.53
2023-04-17T22:12:52.958Z,99354.06
2023-04-17T22:15:21.476Z,99352.13
2023-04-17T22:17:49.864Z,99349.03
2023-04-17T22:20:18.250Z,99356.53
2023-04-17T22:22:47.952Z,99354.28
2023-04-17T22:25:17.125Z,99351.50
2023-04-17T22:27:46.797Z,99355.09
2023-04-17T22:30:15.242Z,99354.28
2023-04-17T22:32:43.695Z,99353.16
2023-04-17T22:35:12.141Z,99352.31
2023-04-17T22:37:40.411Z,99360.63
2023-04-17T22:40:10.632Z,99364.53
2023-04-17T22:42:38.938Z,99362.88
2023-04-17T22:45:10.056Z,99354.06
2023-04-17T22:47:38.495Z,99360.44
2023-04-17T22:50:10.444Z,99358.78
2023-04-17T22:52:38.792Z,99367.09
2023-04-17T22:55:08.193Z,99363.78
2023-04-17T22:57:36.670Z,99357.72
2023-04-17T23:00:08.931Z,99367.16
2023-04-17T23:02:38.919Z,99362.44
2023-04-17T23:05:08.964Z,99357.72
2023-04-17T23:07:37.416Z,99354.97
2023-04-17T23:10:06.982Z,99348.91
2023-04-17T23:12:35.395Z,99356.91
2023-04-17T23:15:04.063Z,99348.59
2023-04-17T23:17:33.185Z,99351.38
2023-04-17T23:20:03.932Z,99348.59
2023-04-17T23:22:32.319Z,99341.38
2023-04-17T23:25:00.722Z,99337.00
2023-04-17T23:27:29.418Z,99341.69
2023-04-17T23:29:59.804Z,99340.03
2023-04-17T23:32:28.336Z,99342.81
2023-04-17T23:34:56.706Z,99328.44
2023-04-17T23:37:26.679Z,99334.81
2023-04-17T23:39:54.990Z,99331.72
2023-04-17T23:42:23.360Z,99324.56
2023-04-17T23:44:52.092Z,99331.22
2023-04-17T23:47:20.565Z,99322.09
2023-04-17T23:49:48.897Z,99319.34
2023-04-17T23:52:19.000Z,99318.50
2023-04-17T23:54:48.796Z,99327.94
2023-04-17T23:57:18.334Z,99320.75
2023-04-17T23:59:46.656Z,99318.78
